Latest Weather Observations for Coober Pedy Airport

IDS60801

Issued at 6:41 am CDT Saturday 16 October 2021 (issued every 10 minutes, with the page automatically refreshed every 10 minutes)

About weather observations | Map of weather stations | Latest weather observations for SA | Other Formats
Station Details ID: 016090 Name: COOBER PEDY AIRPORT Lat: -29.03 Lon: 134.72 Height: 225.0 m
Data from the previous 72 hours. | See also: Recent months at Coober Pedy Airport
Date/Time
CDT
Temp
°C
App
Temp
°C
Dew
Point
°C
Rel
Hum
%
Delta-T
°C
Wind Press
QNH
hPa
Press
MSL
hPa
Rain since
9am
mm
Dir  Spd
km/h
Gust
km/h
Spd
kts
Gust
kts
16/06:30am 10.9 6.9 6.6 75 2.0 SE 17 20 9 11 1017.7 1016.8 0.0
16/06:00am 11.2 6.8 6.7 74 2.2 SE 19 20 10 11 1017.4 1016.5 0.0
16/05:30am 11.4 7.4 6.5 72 2.3 SE 17 19 9 10 1017.2 1016.4 0.0
16/05:00am 11.8 7.8 6.7 71 2.5 SE 17 20 9 11 1017.1 1016.3 0.0
16/04:30am 11.8 8.1 6.5 70 2.5 SSE 15 17 8 9 1016.9 1016.1 0.0
16/04:00am 12.4 8.4 6.5 67 2.8 SSE 17 19 9 10 1016.9 1016.1 0.0
16/03:30am 13.1 9.1 6.5 64 3.2 SSE 17 22 9 12 1016.9 1016.1 0.0
16/03:00am 13.5 9.0 6.1 61 3.6 SSE 19 22 10 12 1016.9 1016.1 0.0
16/02:30am 14.4 9.8 6.3 58 3.9 SSE 20 26 11 14 1017.0 1016.2 0.0
16/02:00am 14.4 10.3 6.3 58 3.9 SSE 17 19 9 10 1017.1 1016.3 0.0
16/01:30am 14.4 11.0 5.7 56 4.2 SSE 13 15 7 8 1017.4 1016.5 0.0
16/01:00am 14.6 10.7 5.4 54 4.4 S 15 17 8 9 1017.6 1016.7 0.0
16/12:30am 14.6 11.1 5.4 54 4.4 S 13 13 7 7 1017.8 1016.9 0.0
16/12:14am 14.7 11.5 5.2 53 4.5 SSW 11 13 6 7 1017.9 1017.0 0.0
16/12:00am 14.8 11.6 5.1 52 4.6 SSW 11 13 6 7 1017.9 1017.0 0.0
 
Date/Time
CDT
Temp
°C
App
Temp
°C
Dew
Point
°C
Rel
Hum
%
Delta-T
°C
Wind Press
QNH
hPa
Press
MSL
hPa
Rain since
9am
mm
Dir  Spd
km/h
Gust
km/h
Spd
kts
Gust
kts
15/11:53pm 15.0 11.8 5.2 52 4.7 SSW 11 13 6 7 1017.9 1017.0 0.0
15/11:30pm 15.3 11.7 5.2 51 4.8 SSW 13 15 7 8 1017.8 1016.9 0.0
15/11:28pm 15.4 11.9 5.3 51 4.8 SSW 13 15 7 8 1017.8 1016.9 0.0
15/11:00pm 15.6 12.5 5.5 51 4.9 SW 11 13 6 7 1017.9 1017.0 0.0
15/10:45pm 15.7 12.9 5.0 49 5.1 SW 9 11 5 6 1017.9 1017.0 0.0
15/10:30pm 15.9 12.7 5.2 49 5.1 WSW 11 11 6 6 1018.0 1017.1 0.0
15/10:00pm 16.2 13.0 5.2 48 5.3 SW 11 11 6 6 1017.8 1016.9 0.0
15/09:30pm 17.4 14.3 5.7 46 5.7 SW 11 13 6 7 1017.6 1016.7 0.0
15/09:00pm 18.4 15.1 6.3 45 6.0 SSW 13 17 7 9 1017.1 1016.3 0.0
15/08:30pm 19.0 14.9 6.2 43 6.4 SSW 17 19 9 10 1016.7 1015.9 0.0
15/08:00pm 19.6 15.1 6.0 41 6.8 SSW 19 24 10 13 1016.3 1015.5 0.0
15/07:30pm 20.0 14.9 6.0 40 7.0 SW 22 26 12 14 1015.9 1015.1 0.0
15/07:00pm 20.8 15.3 6.0 38 7.5 SSW 24 33 13 18 1015.5 1014.7 0.0
15/06:30pm 20.9 15.0 5.7 37 7.6 SSW 26 35 14 19 1015.3 1014.5 0.0
15/06:00pm 21.8 16.2 5.3 34 8.3 SSW 24 35 13 19 1015.1 1014.3 0.0
15/05:30pm 21.8 15.5 5.7 35 8.1 SSW 28 39 15 21 1014.9 1014.1 0.0
15/05:00pm 21.5 16.7 5.4 35 8.1 SSW 20 30 11 16 1014.9 1014.1 0.0
15/04:30pm 21.4 15.7 4.9 34 8.2 SSW 24 39 13 21 1014.8 1014.0 0.0
15/04:00pm 21.7 15.8 6.0 36 8.0 SSW 26 39 14 21 1014.9 1014.1 0.0
15/03:30pm 20.8 15.2 5.2 36 7.8 S 24 33 13 18 1015.4 1014.6 0.0
15/03:00pm 20.8 14.9 5.6 37 7.6 S 26 39 14 21 1015.8 1015.0 0.0
15/02:30pm 20.6 15.1 5.8 38 7.4 SSW 24 35 13 19 1016.2 1015.4 0.0
15/02:00pm 19.9 13.6 5.5 39 7.2 SSW 28 39 15 21 1016.5 1015.7 0.0
15/01:30pm 19.5 13.7 6.3 42 6.6 SSW 26 39 14 21 1016.9 1016.1 0.0
15/01:00pm 18.9 11.9 6.1 43 6.4 SSW 32 50 17 27 1017.2 1016.4 0.0
15/12:55pm 18.9 12.0 6.4 44 6.3 SSW 32 50 17 27 1017.1 1016.3 0.0
15/12:30pm 18.6 12.2 6.8 46 6.0 SSW 30 43 16 23 1017.6 1016.7 0.0
15/12:00pm 18.1 11.4 7.2 49 5.5 SSW 32 43 17 23 1017.9 1017.0 0.0
15/11:30am 17.3 10.6 7.4 52 5.0 SSW 32 41 17 22 1018.3 1017.4 0.0
15/11:00am 17.3 9.7 7.6 53 4.9 SSW 37 52 20 28 1018.4 1017.5 0.0
15/10:30am 16.5 8.6 8.0 57 4.3 SSW 39 48 21 26 1018.5 1017.6 0.0
15/10:00am 16.1 9.1 8.6 61 3.9 SSW 35 44 19 24 1018.5 1017.6 0.0
15/09:30am 14.8 7.3 9.4 70 2.8 SW 39 52 21 28 1018.3 1017.4 0.0
15/09:00am 14.0 6.8 9.2 73 2.5 SW 37 46 20 25 1017.9 1017.0 0.0
15/08:30am 13.3 6.5 9.4 77 2.0 SW 35 44 19 24 1017.8 1016.9 0.0
15/08:00am 12.5 6.6 9.0 79 1.8 SW 30 35 16 19 1017.7 1016.8 0.0
15/07:30am 11.7 6.1 8.6 81 1.6 WSW 28 35 15 19 1017.5 1016.6 0.0
15/07:00am 11.0 5.6 8.2 83 1.4 WSW 26 32 14 17 1017.0 1016.2 0.0
15/06:30am 10.0 4.9 7.6 85 1.2 WSW 24 28 13 15 1016.8 1016.0 0.0
15/06:00am 10.0 5.6 7.4 84 1.3 WSW 20 26 11 14 1016.3 1015.5 0.0
15/05:30am 10.0 5.8 7.4 84 1.3 WSW 19 22 10 12 1016.1 1015.3 0.0
15/05:00am 10.5 6.3 7.6 82 1.4 WSW 19 24 10 13 1015.7 1014.9 0.0
15/04:30am 10.7 6.4 7.2 79 1.7 SW 19 22 10 12 1015.5 1014.7 0.0
15/04:00am 11.2 6.8 7.3 77 1.9 SW 20 26 11 14 1015.5 1014.7 0.0
15/03:30am 11.5 6.6 7.0 74 2.2 SW 22 26 12 14 1015.4 1014.6 0.0
15/03:00am 12.0 6.7 6.7 70 2.6 SW 24 32 13 17 1015.5 1014.7 0.0
15/02:30am 12.4 7.1 6.7 68 2.8 SW 24 32 13 17 1015.6 1014.8 0.0
15/02:00am 12.8 6.2 6.2 64 3.2 SSW 30 35 16 19 1015.7 1014.9 0.0
15/01:30am 12.6 7.2 4.3 57 3.8 SW 22 26 12 14 1015.8 1015.0 0.0
15/01:00am 12.2 7.8 2.6 52 4.2 SW 15 17 8 9 1016.2 1015.4 0.0
15/12:30am 12.8 8.0 2.4 49 4.6 SW 17 19 9 10 1016.0 1015.2 0.0
15/12:00am 13.7 8.4 2.0 45 5.2 SW 19 20 10 11 1016.0 1015.2 0.0
 
Date/Time
CDT
Temp
°C
App
Temp
°C
Dew
Point
°C
Rel
Hum
%
Delta-T
°C
Wind Press
QNH
hPa
Press
MSL
hPa
Rain since
9am
mm
Dir  Spd
km/h
Gust
km/h
Spd
kts
Gust
kts
14/11:30pm 14.3 8.4 1.6 42 5.6 SSW 22 26 12 14 1015.8 1015.0 0.0
14/11:00pm 14.9 8.8 0.7 38 6.2 SSW 22 28 12 15 1015.7 1014.9 0.0
14/10:30pm 15.4 8.9 0.0 35 6.6 SSW 24 33 13 18 1015.5 1014.7 0.0
14/10:00pm 15.7 8.7 -0.5 33 6.9 SSW 26 35 14 19 1015.1 1014.3 0.0
14/09:30pm 16.3 8.9 -0.8 31 7.3 SSW 28 33 15 18 1014.7 1013.9 0.0
14/09:00pm 17.0 9.0 0.2 32 7.3 SW 32 41 17 22 1014.3 1013.4 0.0
14/08:30pm 17.4 9.3 1.0 33 7.3 SW 33 44 18 24 1013.9 1013.0 0.0
14/08:00pm 17.8 9.6 0.5 31 7.7 SW 33 43 18 23 1013.5 1012.6 0.0
14/07:30pm 18.4 9.1 0.5 30 8.0 SW 39 48 21 26 1012.9 1012.0 0.0
14/07:05pm 19.2 9.0 -0.2 27 8.6 SW 43 61 23 33 1012.1 1011.3 0.0
14/07:00pm 19.3 9.9 -0.1 27 8.6 SW 39 54 21 29 1012.2 1011.4 0.0
14/06:33pm 19.7 9.7 0.7 28 8.6 SW 43 61 23 33 1011.7 1010.9 0.0
14/06:30pm 19.6 9.4 1.1 29 8.4 SW 44 59 24 32 1011.8 1011.0 0.0
14/06:00pm 19.7 8.4 1.2 29 8.5 SW 50 67 27 36 1011.3 1010.5 0.0
14/05:30pm 20.6 9.3 1.5 28 8.8 SW 50 63 27 34 1011.0 1010.2 0.0
14/05:00pm 21.0 10.2 -0.3 24 9.5 WSW 46 67 25 36 1010.4 1009.5 0.0
14/04:39pm 21.4 10.8 -1.8 21 10.1 SW 44 63 24 34 1010.3 1009.4 0.0
14/04:30pm 21.5 9.3 -2.4 20 10.3 SW 52 65 28 35 1010.2 1009.3 0.0
14/04:07pm 21.7 9.4 -2.9 19 10.5 WSW 52 80 28 43 1010.1 1009.2 0.0
14/04:00pm 21.4 9.1 -3.1 19 10.4 WSW 52 65 28 35 1010.3 1009.4 0.0
14/03:34pm 22.1 10.2 0.0 23 10.1 SW 52 70 28 38 1010.3 1009.4 0.0
14/03:30pm 21.3 9.0 -0.6 23 9.8 SW 54 70 29 38 1010.4 1009.5 0.0
14/03:00pm 21.7 10.7 0.8 25 9.6 WSW 48 69 26 37 1010.4 1009.5 0.0
14/02:32pm 20.6 9.1 -0.1 25 9.3 SW 50 69 27 37 1010.6 1009.7 0.0
14/02:30pm 21.2 9.8 0.4 25 9.5 SW 50 63 27 34 1010.6 1009.7 0.0
14/02:00pm 20.9 9.5 0.7 26 9.2 WSW 50 76 27 41 1010.8 1010.0 0.0
14/01:32pm 20.4 9.6 1.8 29 8.6 WSW 48 69 26 37 1010.9 1010.1 0.0
14/01:30pm 19.8 9.4 2.2 31 8.2 WSW 46 57 25 31 1011.1 1010.3 0.0
14/01:12pm 19.7 8.6 2.6 32 8.0 SW 50 69 27 37 1011.3 1010.5 0.0
14/01:00pm 19.8 8.7 2.6 32 8.1 WSW 50 65 27 35 1011.3 1010.5 0.0
14/12:30pm 18.4 7.1 3.5 37 7.1 WSW 52 76 28 41 1011.2 1010.4 0.0
14/12:00pm 17.7 6.9 3.9 40 6.6 WSW 50 70 27 38 1011.5 1010.7 0.0
14/11:30am 16.8 5.6 4.2 43 6.0 WSW 52 70 28 38 1011.5 1010.7 0.0
14/11:00am 16.0 4.6 5.0 48 5.3 WSW 54 74 29 40 1011.8 1011.0 0.0
14/10:30am 15.3 3.9 4.7 49 5.0 WSW 54 72 29 39 1011.7 1010.9 0.0
14/10:24am 15.4 4.3 4.5 48 5.1 WSW 52 72 28 39 1011.6 1010.8 0.0
14/10:00am 14.7 3.2 4.4 50 4.8 WSW 54 65 29 35 1011.5 1010.7 0.0
14/09:30am 13.9 2.1 5.0 55 4.2 WSW 56 70 30 38 1011.4 1010.6 0.0
14/09:04am 14.0 3.0 5.1 55 4.2 WSW 52 70 28 38 1011.1 1010.3 0.0
14/09:00am 13.5 2.1 4.9 56 4.0 WSW 54 70 29 38 1011.2 1010.4 0.0
14/08:30am 12.8 2.1 4.8 58 3.7 WSW 50 61 27 33 1011.1 1010.3 0.0
14/08:00am 12.3 2.4 4.8 60 3.5 WSW 46 57 25 31 1011.1 1010.3 0.0
14/07:30am 12.0 3.9 5.4 64 3.1 WSW 37 54 20 29 1010.6 1009.7 0.0
14/07:00am 11.7 3.8 6.0 68 2.7 WSW 37 48 20 26 1010.3 1009.4 0.0
14/06:30am 12.0 3.7 5.9 66 2.9 W 39 56 21 30 1009.7 1008.8 0.0
14/06:00am 12.3 3.1 5.5 63 3.2 WSW 43 59 23 32 1009.5 1008.6 0.0
14/05:30am 12.8 3.3 6.8 67 2.9 W 46 59 25 32 1009.0 1008.1 0.0
14/05:00am 13.2 5.5 7.0 66 3.0 W 37 52 20 28 1009.0 1008.1 0.0
14/04:55am 13.4 6.5 7.2 66 3.1 WSW 33 52 18 28 1008.9 1008.0 0.0
14/04:30am 13.7 5.1 6.6 62 3.5 WSW 41 54 22 29 1008.8 1007.9 0.0
14/04:00am 14.2 4.2 6.1 58 3.9 WSW 48 59 26 32 1008.8 1007.9 0.0
14/03:39am 14.5 6.3 6.6 59 3.9 WSW 39 57 21 31 1008.9 1008.0 0.0
14/03:30am 14.5 7.2 7.3 62 3.6 WSW 35 46 19 25 1009.2 1008.3 0.0
14/03:00am 14.5 6.2 7.8 64 3.4 WSW 41 52 22 28 1009.4 1008.5 0.0
14/02:30am 14.7 7.3 8.2 65 3.3 WSW 37 52 20 28 1009.7 1008.8 0.0
14/02:00am 15.5 7.1 7.3 58 4.1 SW 41 56 22 30 1010.1 1009.2 0.0
14/01:51am 15.8 8.0 6.8 55 4.5 SW 37 56 20 30 1010.1 1009.2 0.0
14/01:30am 16.5 9.3 4.9 46 5.6 WSW 32 46 17 25 1010.3 1009.4 0.0
14/01:26am 16.6 10.0 4.3 44 5.8 WSW 28 44 15 24 1010.2 1009.3 0.0
14/01:00am 16.3 11.1 0.0 33 7.1 W 17 20 9 11 1010.3 1009.4 0.0
14/12:30am 15.8 11.2 -0.8 32 7.0 WNW 13 17 7 9 1010.4 1009.5 0.0
14/12:00am 15.8 10.8 -1.3 31 7.2 WNW 15 17 8 9 1010.7 1009.8 0.0
 
Date/Time
CDT
Temp
°C
App
Temp
°C
Dew
Point
°C
Rel
Hum
%
Delta-T
°C
Wind Press
QNH
hPa
Press
MSL
hPa
Rain since
9am
mm
Dir  Spd
km/h
Gust
km/h
Spd
kts
Gust
kts
13/11:30pm 15.0 10.3 -1.5 32 6.8 WNW 13 17 7 9 1011.0 1010.2 0.0
13/11:00pm 14.6 9.5 -1.9 32 6.7 WNW 15 17 8 9 1011.3 1010.5 0.0
13/10:30pm 15.4 10.3 -1.6 31 7.1 W 15 19 8 10 1011.5 1010.7 0.0
13/10:00pm 15.8 10.7 -1.7 30 7.3 W 15 17 8 9 1011.5 1010.7 0.0
13/09:30pm 16.8 10.8 -1.8 28 7.8 WSW 20 24 11 13 1011.4 1010.6 0.0
13/09:00pm 17.6 10.8 -2.1 26 8.3 WSW 24 30 13 16 1011.3 1010.5 0.0
13/08:30pm 18.1 10.1 -2.2 25 8.5 WSW 30 37 16 20 1011.1 1010.3 0.0
13/08:00pm 18.6 10.3 -1.8 25 8.7 WSW 32 39 17 21 1010.7 1009.8 0.0
13/07:30pm 19.2 9.5 -2.4 23 9.1 WSW 39 48 21 26 1010.5 1009.6 0.0
13/07:00pm 20.0 10.2 -3.0 21 9.7 WSW 39 52 21 28 1010.3 1009.4 0.0
13/06:30pm 20.7 11.2 -3.7 19 10.2 WSW 37 52 20 28 1010.1 1009.2 0.0
13/06:00pm 21.0 11.1 -3.5 19 10.3 WSW 39 52 21 28 1009.9 1009.0 0.0
13/05:30pm 21.5 12.1 -3.1 19 10.5 W 37 56 20 30 1009.8 1008.9 0.0
13/05:12pm 21.5 11.7 -3.1 19 10.5 W 39 59 21 32 1009.8 1008.9 0.0
13/05:00pm 21.5 11.3 -3.1 19 10.5 W 41 57 22 31 1009.9 1009.0 0.0
13/04:30pm 21.7 12.5 -1.6 21 10.3 W 37 57 20 31 1010.1 1009.2 0.0
13/04:05pm 22.0 12.0 -1.3 21 10.3 W 41 59 22 32 1010.2 1009.3 0.0
13/04:00pm 21.3 10.9 -1.9 21 10.1 W 43 59 23 32 1010.4 1009.5 0.0
13/03:31pm 20.9 10.5 -1.6 22 9.8 WSW 43 61 23 33 1010.6 1009.7 0.0
13/03:30pm 21.1 10.6 -1.4 22 9.9 WSW 44 61 24 33 1010.7 1009.8 0.0
13/03:09pm 20.7 10.8 -0.6 24 9.5 W 41 59 22 32 1010.9 1010.1 0.0
13/03:00pm 20.8 10.3 -1.1 23 9.7 WSW 44 57 24 31 1010.9 1010.1 0.0
13/02:36pm 21.1 11.7 -0.2 24 9.6 W 39 59 21 32 1011.2 1010.4 0.0
13/02:30pm 20.7 10.0 0.0 25 9.3 W 46 59 25 32 1011.3 1010.5 0.0
13/02:00pm 20.5 11.0 -0.7 24 9.4 W 39 57 21 31 1011.6 1010.8 0.0
13/01:57pm 20.7 10.8 -0.6 24 9.5 W 41 57 22 31 1011.6 1010.8 0.0
13/01:53pm 20.5 10.4 0.4 26 9.1 WSW 43 57 23 31 1011.7 1010.9 0.0
13/01:44pm 20.0 9.7 -1.2 24 9.3 WSW 43 57 23 31 1011.8 1011.0 0.0
13/01:30pm 20.4 10.7 0.3 26 9.1 W 41 57 22 31 1012.0 1011.2 0.0
13/01:29pm 19.9 10.1 -0.1 26 8.9 W 41 59 22 32 1012.0 1011.2 0.0
13/01:27pm 20.2 10.4 0.1 26 9.0 W 41 59 22 32 1012.1 1011.3 0.0
13/01:10pm 19.9 9.6 -0.7 25 9.1 WSW 43 61 23 33 1012.2 1011.4 0.0
13/01:00pm 19.2 8.4 -0.2 27 8.6 WSW 46 61 25 33 1012.3 1011.5 0.0
13/12:47pm 19.1 8.8 0.2 28 8.4 WSW 44 67 24 36 1012.3 1011.5 0.0
13/12:30pm 18.6 8.9 0.2 29 8.2 WSW 41 56 22 30 1013.0 1012.1 0.0
13/12:21pm 18.9 10.0 0.5 29 8.2 WSW 37 56 20 30 1013.1 1012.2 0.0
13/12:00pm 18.5 8.9 1.1 31 7.9 WSW 41 56 22 30 1013.3 1012.4 0.0
13/11:30am 17.2 7.9 0.8 33 7.3 WSW 39 54 21 29 1013.9 1013.0 0.0
13/11:00am 16.3 6.8 1.6 37 6.6 WSW 41 50 22 27 1014.2 1013.3 0.0
13/10:47am 16.1 6.9 1.0 36 6.7 WSW 39 61 21 33 1014.3 1013.4 0.0
13/10:30am 15.9 5.7 1.2 37 6.5 WSW 44 56 24 30 1014.3 1013.4 0.0
13/10:02am 15.1 6.4 2.0 41 5.9 WSW 37 56 20 30 1014.6 1013.7 0.0
13/10:00am 14.8 6.1 1.7 41 5.8 WSW 37 54 20 29 1014.6 1013.7 0.0
13/09:30am 13.6 5.6 1.9 45 5.1 WSW 33 43 18 23 1014.9 1014.1 0.0
13/09:00am 12.6 5.7 2.7 51 4.4 WSW 28 37 15 20 1014.7 1013.9 0.0
13/08:30am 11.6 5.0 2.1 52 4.1 WSW 26 35 14 19 1014.6 1013.7 0.0
13/08:00am 10.7 5.3 1.3 52 4.0 SW 19 24 10 13 1014.2 1013.3 0.0
13/07:30am 9.4 5.1 0.8 55 3.5 WSW 13 17 7 9 1013.9 1013.0 0.0
13/07:00am 9.4 3.9 0.8 55 3.5 SW 19 20 10 11 1013.4 1012.5 0.0

Other formats

Comma delimited format used in spreadsheet applications
http://www.bom.gov.au/fwo/IDS60801/IDS60801.95458.axf

JavaScript Object Notation format (JSON) in row-major order
http://www.bom.gov.au/fwo/IDS60801/IDS60801.95458.json

Data quality

Most of these data are generated automatically and are frequently updated. Quality checks on data are not normally performed. It is possible for incorrect values to appear. Refer to information at About Latest Weather Observations and please check the disclaimer before using these data.